createdAt,value
2023-04-04T00:01:55.552Z,2.20
2023-04-04T00:04:25.190Z,2.60
2023-04-04T00:06:55.301Z,2.50
2023-04-04T00:09:24.501Z,2.80
2023-04-04T00:11:53.950Z,2.60
2023-04-04T00:14:23.204Z,2.70
2023-04-04T00:16:52.305Z,2.80
2023-04-04T00:19:21.344Z,2.70
2023-04-04T00:21:50.724Z,2.80
2023-04-04T00:24:19.683Z,2.50
2023-04-04T00:26:48.854Z,2.90
2023-04-04T00:29:17.911Z,2.50
2023-04-04T00:31:47.030Z,2.60
2023-04-04T00:34:15.852Z,2.90
2023-04-04T00:36:45.034Z,2.60
2023-04-04T00:39:14.035Z,3.00
2023-04-04T00:41:42.943Z,2.80
2023-04-04T00:44:12.378Z,2.80
2023-04-04T00:46:41.727Z,2.70
2023-04-04T00:49:10.685Z,3.00
2023-04-04T00:51:39.955Z,2.80
2023-04-04T00:54:09.768Z,3.10
2023-04-04T00:56:40.985Z,3.20
2023-04-04T00:59:10.367Z,2.70
2023-04-04T01:01:39.742Z,3.20
2023-04-04T01:04:09.454Z,3.00
2023-04-04T01:06:38.751Z,2.90
2023-04-04T01:09:07.599Z,3.00
2023-04-04T01:11:36.953Z,2.60
2023-04-04T01:14:06.074Z,2.80
2023-04-04T01:16:36.730Z,2.90
2023-04-04T01:19:10.576Z,2.70
2023-04-04T01:21:41.373Z,2.60
2023-04-04T01:24:13.142Z,2.80
2023-04-04T01:26:42.396Z,2.90
2023-04-04T01:29:11.895Z,2.70
2023-04-04T01:31:52.202Z,2.90
2023-04-04T01:34:39.757Z,3.00
2023-04-04T01:37:21.686Z,2.80
2023-04-04T01:39:56.802Z,2.60
2023-04-04T01:42:27.266Z,2.70
2023-04-04T01:44:57.503Z,2.70
2023-04-04T01:47:26.580Z,3.00
2023-04-04T01:49:56.098Z,2.60
2023-04-04T01:52:25.215Z,2.80
2023-04-04T01:54:54.171Z,3.10
2023-04-04T01:57:23.364Z,2.90
2023-04-04T01:59:52.316Z,3.00
2023-04-04T02:02:21.470Z,3.20
2023-04-04T02:04:50.412Z,2.90
2023-04-04T02:07:19.798Z,3.30
2023-04-04T02:09:48.763Z,3.00
2023-04-04T02:12:17.672Z,3.20
2023-04-04T02:14:46.768Z,3.40
2023-04-04T02:17:16.775Z,2.80
2023-04-04T02:19:46.475Z,3.50
2023-04-04T02:22:15.292Z,3.10
2023-04-04T02:24:44.222Z,3.30
2023-04-04T02:27:13.259Z,3.10
2023-04-04T02:29:42.622Z,2.90
2023-04-04T02:32:12.094Z,2.80
2023-04-04T02:34:41.098Z,2.60
2023-04-04T02:37:09.999Z,2.60
2023-04-04T02:39:39.834Z,2.90
2023-04-04T02:42:08.939Z,2.60
2023-04-04T02:44:37.785Z,2.70
2023-04-04T02:47:07.812Z,2.80
2023-04-04T02:49:36.879Z,2.60
2023-04-04T02:52:05.857Z,2.70
2023-04-04T02:54:34.687Z,2.80
2023-04-04T02:57:05.062Z,2.70
2023-04-04T02:59:34.163Z,2.30
2023-04-04T03:02:03.338Z,2.60
2023-04-04T03:04:33.325Z,2.50
2023-04-04T03:07:03.749Z,2.80
2023-04-04T03:09:32.935Z,2.50
2023-04-04T03:12:02.130Z,2.60
2023-04-04T03:14:30.874Z,2.50
2023-04-04T03:16:59.874Z,2.70
2023-04-04T03:19:29.214Z,3.30
2023-04-04T03:21:58.146Z,2.60
2023-04-04T03:24:28.960Z,2.70
2023-04-04T03:26:57.987Z,2.40
2023-04-04T03:29:27.514Z,2.60
2023-04-04T03:31:56.951Z,2.60
2023-04-04T03:34:27.749Z,2.60
2023-04-04T03:36:57.854Z,2.80
2023-04-04T03:39:32.822Z,2.80
2023-04-04T03:42:02.072Z,2.50
2023-04-04T03:44:31.462Z,2.70
2023-04-04T03:47:00.412Z,2.60
2023-04-04T03:49:30.493Z,2.40
2023-04-04T03:52:00.206Z,2.80
2023-04-04T03:54:29.944Z,2.40
2023-04-04T03:56:59.844Z,2.70
2023-04-04T03:59:30.302Z,2.80
2023-04-04T04:01:59.585Z,2.50
2023-04-04T04:04:28.749Z,2.70
2023-04-04T04:06:58.117Z,2.80
2023-04-04T04:09:27.778Z,2.40
2023-04-04T04:11:57.125Z,2.40
2023-04-04T04:14:26.133Z,4.40
2023-04-04T04:16:55.506Z,4.40
2023-04-04T04:19:24.420Z,2.90
2023-04-04T04:21:53.107Z,2.90
2023-04-04T04:24:22.923Z,3.10
2023-04-04T04:26:51.825Z,2.90
2023-04-04T04:29:21.267Z,2.70
2023-04-04T04:31:50.304Z,2.90
2023-04-04T04:34:19.033Z,2.90
2023-04-04T04:36:48.674Z,3.00
2023-04-04T04:39:17.585Z,3.20
2023-04-04T04:41:46.496Z,2.60
2023-04-04T04:44:15.304Z,2.50
2023-04-04T04:46:44.380Z,2.60
2023-04-04T04:49:13.461Z,2.50
2023-04-04T04:51:43.442Z,2.20
2023-04-04T04:54:12.621Z,2.50
2023-04-04T04:56:41.941Z,2.30
2023-04-04T04:59:11.790Z,2.40
2023-04-04T05:01:40.866Z,2.20
2023-04-04T05:04:09.839Z,2.30
2023-04-04T05:06:39.000Z,2.40
2023-04-04T05:09:07.838Z,2.60
2023-04-04T05:11:37.096Z,2.90
2023-04-04T05:14:07.307Z,3.10
2023-04-04T05:16:36.295Z,2.70
2023-04-04T05:19:05.638Z,2.60
2023-04-04T05:21:34.976Z,2.60
2023-04-04T05:24:04.190Z,2.50
2023-04-04T05:26:33.452Z,2.40
2023-04-04T05:29:02.719Z,2.70
2023-04-04T05:31:31.897Z,3.00
2023-04-04T05:34:08.390Z,2.90
2023-04-04T05:36:38.398Z,2.40
2023-04-04T05:39:08.114Z,2.40
2023-04-04T05:41:37.304Z,3.10
2023-04-04T05:44:06.827Z,2.80
2023-04-04T05:46:36.654Z,3.00
2023-04-04T05:49:06.639Z,2.50
2023-04-04T05:51:36.012Z,2.40
2023-04-04T05:54:08.165Z,8.40
2023-04-04T05:56:37.962Z,6.10
2023-04-04T05:59:07.358Z,3.60
2023-04-04T06:01:36.571Z,12.10
2023-04-04T06:04:05.858Z,6.70
2023-04-04T06:06:36.307Z,9.00
2023-04-04T06:09:08.253Z,9.80
2023-04-04T06:11:38.658Z,9.40
2023-04-04T06:14:09.282Z,8.90
2023-04-04T06:16:39.284Z,6.80
2023-04-04T06:19:08.268Z,7.90
2023-04-04T06:21:37.578Z,5.90
2023-04-04T06:24:06.787Z,5.20
2023-04-04T06:26:36.863Z,3.80
2023-04-04T06:29:06.624Z,5.50
2023-04-04T06:31:36.147Z,6.50
2023-04-04T06:34:05.407Z,5.90
2023-04-04T06:36:36.185Z,5.70
2023-04-04T06:39:05.360Z,4.20
2023-04-04T06:41:35.195Z,7.50
2023-04-04T06:44:04.719Z,6.50
2023-04-04T06:46:34.762Z,7.10
2023-04-04T06:49:04.656Z,11.30
2023-04-04T06:51:35.265Z,3.90
2023-04-04T06:54:04.875Z,6.00
2023-04-04T06:56:34.382Z,5.00
2023-04-04T06:59:04.196Z,6.90
2023-04-04T07:01:36.912Z,4.80
2023-04-04T07:04:06.819Z,4.40
2023-04-04T07:06:35.804Z,8.00
2023-04-04T07:09:05.920Z,18.40
2023-04-04T07:11:36.608Z,7.50
2023-04-04T07:14:07.049Z,2.80
2023-04-04T07:16:37.148Z,2.30
2023-04-04T07:19:08.960Z,3.50
2023-04-04T07:21:37.866Z,3.60
2023-04-04T07:24:07.303Z,2.50
2023-04-04T07:26:37.742Z,2.90
2023-04-04T07:29:07.300Z,3.10
2023-04-04T07:31:36.827Z,2.90
2023-04-04T07:34:06.772Z,2.90
2023-04-04T07:36:35.607Z,2.90
2023-04-04T07:39:05.557Z,3.00
2023-04-04T07:41:35.014Z,2.80
2023-04-04T07:44:04.397Z,2.50
2023-04-04T07:46:33.839Z,2.90
2023-04-04T07:49:03.683Z,2.90
2023-04-04T07:51:33.534Z,2.90
2023-04-04T07:54:03.180Z,2.90
2023-04-04T07:56:32.111Z,3.00
2023-04-04T07:59:01.451Z,2.70
2023-04-04T08:01:31.316Z,2.90
2023-04-04T08:04:00.988Z,3.10
2023-04-04T08:06:30.367Z,3.20
2023-04-04T08:09:01.465Z,2.70
2023-04-04T08:11:30.557Z,2.60
2023-04-04T08:14:01.694Z,2.80
2023-04-04T08:16:30.600Z,2.80
2023-04-04T08:19:01.327Z,2.80
2023-04-04T08:21:30.713Z,2.70
2023-04-04T08:24:00.039Z,3.10
2023-04-04T08:26:30.255Z,23.20
2023-04-04T08:29:00.355Z,6.50
2023-04-04T08:31:30.306Z,11.60
2023-04-04T08:33:59.456Z,9.10
2023-04-04T08:36:29.163Z,24.40
2023-04-04T08:38:58.695Z,8.00
2023-04-04T08:41:28.645Z,18.80
2023-04-04T08:44:02.653Z,3.90
2023-04-04T08:46:32.682Z,11.30
2023-04-04T08:49:05.050Z,5.40
2023-04-04T08:51:36.372Z,7.40
2023-04-04T08:54:07.387Z,15.00
2023-04-04T08:56:37.116Z,12.00
2023-04-04T08:59:06.706Z,7.40
2023-04-04T09:01:36.952Z,5.60
2023-04-04T09:04:08.566Z,14.50
2023-04-04T09:06:41.085Z,5.30
2023-04-04T09:09:12.156Z,8.10
2023-04-04T09:11:41.881Z,5.10
2023-04-04T09:14:11.721Z,4.20
2023-04-04T09:16:41.274Z,4.30
2023-04-04T09:19:13.398Z,3.70
2023-04-04T09:21:47.585Z,3.40
2023-04-04T09:24:18.094Z,3.70
2023-04-04T09:26:54.906Z,3.10
2023-04-04T09:29:24.141Z,3.20
2023-04-04T09:31:54.537Z,2.70
2023-04-04T09:34:23.649Z,3.30
2023-04-04T09:36:54.523Z,3.20
2023-04-04T09:39:24.306Z,2.90
2023-04-04T09:41:55.085Z,3.60
2023-04-04T09:44:26.322Z,3.50
2023-04-04T09:47:30.993Z,3.30
2023-04-04T09:50:01.918Z,2.90
2023-04-04T09:52:36.462Z,3.50
2023-04-04T09:55:07.486Z,2.70
2023-04-04T09:57:38.576Z,2.90
2023-04-04T10:00:12.805Z,2.80
2023-04-04T10:02:49.133Z,2.60
2023-04-04T10:05:20.826Z,2.70
2023-04-04T10:07:50.196Z,2.80
2023-04-04T10:10:20.674Z,2.60
2023-04-04T10:12:53.386Z,2.70
2023-04-04T10:15:23.269Z,2.70
2023-04-04T10:17:55.948Z,3.00
2023-04-04T10:20:26.758Z,2.70
2023-04-04T10:22:56.966Z,3.00
2023-04-04T10:25:27.641Z,2.90
2023-04-04T10:27:58.037Z,3.10
2023-04-04T10:30:28.130Z,3.50
2023-04-04T10:33:02.996Z,3.20
2023-04-04T10:35:34.544Z,2.50
2023-04-04T10:38:07.226Z,2.90
2023-04-04T10:40:41.745Z,2.30
2023-04-04T10:43:12.796Z,2.90
2023-04-04T10:45:43.157Z,3.10
2023-04-04T10:48:13.005Z,2.60
2023-04-04T10:50:43.144Z,2.70
2023-04-04T10:53:12.459Z,2.90
2023-04-04T10:55:43.014Z,2.80
2023-04-04T10:58:13.450Z,3.30
2023-04-04T11:00:56.005Z,2.80
2023-04-04T11:03:26.206Z,2.80
2023-04-04T11:06:02.081Z,2.70
2023-04-04T11:08:37.969Z,2.90
2023-04-04T11:11:21.768Z,3.10
2023-04-04T11:14:04.685Z,3.30
2023-04-04T11:16:47.949Z,2.90
2023-04-04T11:19:18.405Z,2.70
2023-04-04T11:21:51.170Z,2.80
2023-04-04T11:24:20.749Z,4.20
2023-04-04T11:26:49.845Z,3.30
2023-04-04T11:29:43.073Z,2.90
2023-04-04T11:32:34.369Z,2.30
2023-04-04T11:35:06.824Z,3.80
2023-04-04T11:37:45.672Z,3.50
2023-04-04T11:40:16.675Z,4.00
2023-04-04T11:42:53.108Z,4.50
2023-04-04T11:45:26.052Z,3.90
2023-04-04T11:47:56.404Z,3.20
2023-04-04T11:50:25.896Z,3.10
2023-04-04T11:52:55.782Z,3.00
2023-04-04T11:55:26.966Z,3.20
2023-04-04T11:57:58.609Z,3.20
2023-04-04T12:00:40.169Z,3.60
2023-04-04T12:03:13.178Z,2.70
2023-04-04T12:05:45.391Z,2.90
2023-04-04T12:08:18.606Z,2.90
2023-04-04T12:10:48.366Z,2.90
2023-04-04T12:13:17.985Z,3.40
2023-04-04T12:15:49.346Z,3.20
2023-04-04T12:18:24.046Z,3.30
2023-04-04T12:20:54.873Z,3.30
2023-04-04T12:23:25.985Z,3.20
2023-04-04T12:26:03.382Z,2.50
2023-04-04T12:28:35.520Z,2.60
2023-04-04T12:31:07.255Z,2.80
2023-04-04T12:36:27.625Z,2.90
2023-04-04T12:39:09.547Z,2.60
2023-04-04T12:42:09.034Z,3.20
2023-04-04T12:44:41.012Z,3.70
2023-04-04T12:47:12.118Z,3.30
2023-04-04T12:49:43.730Z,2.90
2023-04-04T12:52:21.173Z,3.00
2023-04-04T12:57:28.656Z,4.60
2023-04-04T13:00:02.858Z,4.40
2023-04-04T13:02:32.832Z,3.40
2023-04-04T13:05:02.347Z,3.20
2023-04-04T13:07:35.400Z,3.30
2023-04-04T13:10:05.988Z,2.90
2023-04-04T13:13:01.026Z,3.10
2023-04-04T13:16:08.147Z,2.80
2023-04-04T13:18:42.889Z,5.90
2023-04-04T13:21:13.641Z,3.40
2023-04-04T13:23:43.726Z,3.30
2023-04-04T13:26:13.373Z,3.20
2023-04-04T13:28:42.809Z,2.80
2023-04-04T13:31:12.428Z,3.10
2023-04-04T13:33:42.809Z,2.80
2023-04-04T13:36:14.591Z,2.60
2023-04-04T13:38:43.968Z,2.80
2023-04-04T13:41:12.976Z,2.90
2023-04-04T13:43:42.612Z,2.70
2023-04-04T13:46:11.737Z,3.10
2023-04-04T13:48:43.751Z,3.90
2023-04-04T13:51:13.077Z,4.50
2023-04-04T13:53:42.091Z,3.00
2023-04-04T13:56:17.569Z,6.90
2023-04-04T13:58:47.720Z,4.60
2023-04-04T14:01:17.325Z,3.30
2023-04-04T14:03:48.123Z,3.20
2023-04-04T14:06:17.755Z,3.90
2023-04-04T14:08:47.796Z,3.30
2023-04-04T14:11:17.300Z,3.00
2023-04-04T14:13:46.878Z,2.90
2023-04-04T14:16:16.779Z,2.70
2023-04-04T14:18:45.726Z,2.40
2023-04-04T14:21:15.320Z,2.40
2023-04-04T14:23:44.779Z,2.70
2023-04-04T14:26:14.648Z,2.60
2023-04-04T14:28:44.194Z,2.60
2023-04-04T14:31:13.997Z,2.80
2023-04-04T14:33:43.203Z,2.40
2023-04-04T14:36:12.359Z,2.60
2023-04-04T14:38:41.489Z,2.40
2023-04-04T14:41:11.034Z,2.40
2023-04-04T14:43:40.785Z,2.20
2023-04-04T14:46:10.399Z,2.10
2023-04-04T14:48:39.590Z,2.40
2023-04-04T14:51:09.054Z,1.90
2023-04-04T14:53:38.427Z,2.60
2023-04-04T14:56:08.628Z,2.30
2023-04-04T14:58:38.088Z,2.90
2023-04-04T15:01:07.799Z,2.60
2023-04-04T15:03:37.808Z,2.30
2023-04-04T15:06:07.170Z,2.50
2023-04-04T15:08:36.440Z,2.60
2023-04-04T15:11:06.037Z,1.90
2023-04-04T15:13:35.618Z,2.70
2023-04-04T15:16:05.120Z,2.30
2023-04-04T15:18:34.735Z,2.20
2023-04-04T15:21:05.211Z,2.20
2023-04-04T15:23:34.550Z,2.00
2023-04-04T15:26:04.164Z,2.20
2023-04-04T15:28:34.011Z,2.20
2023-04-04T15:31:03.620Z,2.00
2023-04-04T15:33:33.366Z,1.90
2023-04-04T15:36:02.496Z,2.20
2023-04-04T15:38:31.562Z,2.20
2023-04-04T15:41:01.192Z,2.20
2023-04-04T15:43:32.643Z,2.00
2023-04-04T15:46:02.885Z,2.20
2023-04-04T15:48:34.745Z,2.00
2023-04-04T15:51:04.644Z,2.70
2023-04-04T15:53:34.293Z,2.60
2023-04-04T15:56:03.732Z,2.40
2023-04-04T15:58:33.935Z,2.90
2023-04-04T16:01:04.308Z,2.40
2023-04-04T16:03:33.823Z,2.20
2023-04-04T16:06:03.614Z,2.40
2023-04-04T16:08:34.403Z,2.30
2023-04-04T16:11:05.297Z,2.30
2023-04-04T16:13:35.368Z,2.20
2023-04-04T16:16:05.500Z,2.20
2023-04-04T16:18:37.964Z,2.50
2023-04-04T16:21:09.346Z,2.70
2023-04-04T16:23:39.716Z,2.60
2023-04-04T16:26:09.938Z,2.40
2023-04-04T16:28:39.562Z,2.00
2023-04-04T16:31:09.734Z,2.80
2023-04-04T16:33:40.478Z,2.50
2023-04-04T16:36:10.402Z,2.50
2023-04-04T16:38:40.921Z,2.40
2023-04-04T16:41:10.504Z,2.20
2023-04-04T16:43:41.276Z,2.00
2023-04-04T16:46:12.453Z,11.60
2023-04-04T16:48:43.182Z,7.40
2023-04-04T16:51:14.422Z,7.40
2023-04-04T16:53:44.299Z,14.80
2023-04-04T16:56:13.293Z,7.80
2023-04-04T16:58:45.569Z,2.90
2023-04-04T17:01:22.093Z,5.80
2023-04-04T17:03:52.497Z,3.20
2023-04-04T17:06:23.157Z,2.90
2023-04-04T17:08:54.075Z,3.00
2023-04-04T17:11:25.714Z,2.50
2023-04-04T17:13:55.820Z,3.90
2023-04-04T17:16:27.660Z,3.50
2023-04-04T17:18:58.859Z,3.30
2023-04-04T17:21:29.420Z,3.40
2023-04-04T17:24:00.337Z,3.70
2023-04-04T17:26:30.989Z,2.80
2023-04-04T17:29:02.252Z,2.30
2023-04-04T17:31:33.442Z,2.80
2023-04-04T17:34:03.962Z,3.70
2023-04-04T17:36:36.265Z,3.30
2023-04-04T17:39:08.599Z,2.70
2023-04-04T17:41:40.541Z,2.50
2023-04-04T17:44:11.826Z,2.60
2023-04-04T17:46:42.017Z,2.20
2023-04-04T17:49:13.237Z,2.40
2023-04-04T17:51:43.429Z,2.20
2023-04-04T17:54:15.071Z,2.50
2023-04-04T17:56:47.415Z,2.60
2023-04-04T17:59:18.135Z,2.30
2023-04-04T18:01:48.866Z,7.00
2023-04-04T18:04:20.417Z,7.70
2023-04-04T18:06:50.871Z,20.90
2023-04-04T18:09:21.788Z,21.70
2023-04-04T18:11:52.577Z,6.50
2023-04-04T18:14:23.195Z,6.30
2023-04-04T18:16:54.134Z,8.00
2023-04-04T18:19:24.815Z,7.40
2023-04-04T18:22:00.959Z,7.70
2023-04-04T18:24:32.231Z,5.00
2023-04-04T18:27:02.836Z,4.70
2023-04-04T18:29:33.716Z,8.30
2023-04-04T18:32:04.892Z,4.40
2023-04-04T18:34:36.974Z,4.60
2023-04-04T18:37:08.916Z,4.30
2023-04-04T18:39:40.679Z,2.90
2023-04-04T18:42:13.584Z,2.60
2023-04-04T18:44:44.235Z,2.90
2023-04-04T18:47:14.557Z,3.60
2023-04-04T18:49:43.887Z,3.60
2023-04-04T18:52:13.916Z,4.40
2023-04-04T18:54:42.998Z,2.90
2023-04-04T18:57:13.894Z,2.40
2023-04-04T18:59:44.166Z,2.50
2023-04-04T19:02:14.645Z,2.50
2023-04-04T19:04:46.302Z,2.60
2023-04-04T19:07:22.626Z,2.60
2023-04-04T19:09:52.358Z,2.50
2023-04-04T19:12:22.061Z,2.70
2023-04-04T19:14:51.960Z,2.60
2023-04-04T19:17:21.482Z,2.30
2023-04-04T19:19:51.193Z,2.20
2023-04-04T19:22:20.726Z,2.50
2023-04-04T19:24:50.762Z,2.10
2023-04-04T19:27:21.891Z,2.40
2023-04-04T19:29:54.790Z,2.10
2023-04-04T19:32:28.205Z,2.30
2023-04-04T19:34:59.312Z,2.10
2023-04-04T19:37:29.616Z,2.10
2023-04-04T19:40:00.218Z,2.10
2023-04-04T19:42:31.107Z,2.20
2023-04-04T19:45:01.819Z,2.10
2023-04-04T19:47:32.382Z,2.70
2023-04-04T19:50:02.410Z,3.50
2023-04-04T19:52:32.481Z,3.20
2023-04-04T19:55:08.913Z,2.30
2023-04-04T19:57:38.895Z,2.10
2023-04-04T20:00:14.861Z,2.30
2023-04-04T20:02:57.474Z,2.20
2023-04-04T20:05:30.593Z,2.80
2023-04-04T20:08:07.401Z,2.60
2023-04-04T20:10:39.999Z,2.40
2023-04-04T20:13:10.942Z,2.30
2023-04-04T20:15:50.239Z,2.20
2023-04-04T20:18:24.878Z,2.10
2023-04-04T20:21:13.847Z,2.10
2023-04-04T20:23:50.397Z,2.20
2023-04-04T20:26:39.953Z,3.20
2023-04-04T20:29:13.972Z,3.70
2023-04-04T20:31:48.931Z,2.50
2023-04-04T20:34:42.834Z,6.50
2023-04-04T20:37:23.735Z,4.30
2023-04-04T20:39:57.637Z,3.50
2023-04-04T20:42:38.978Z,3.40
2023-04-04T20:45:15.280Z,4.40
2023-04-04T20:47:52.592Z,8.40
2023-04-04T20:50:27.838Z,7.30
2023-04-04T20:53:01.574Z,4.60
2023-04-04T20:55:34.614Z,3.10
2023-04-04T20:58:11.490Z,4.70
2023-04-04T21:00:43.686Z,3.50
2023-04-04T21:03:32.771Z,2.40
2023-04-04T21:06:15.548Z,2.40
2023-04-04T21:08:50.406Z,2.10
2023-04-04T21:11:32.052Z,2.60
2023-04-04T21:14:02.658Z,2.70
2023-04-04T21:16:32.846Z,2.70
2023-04-04T21:19:03.778Z,2.60
2023-04-04T21:21:33.417Z,3.20
2023-04-04T21:24:03.873Z,2.80
2023-04-04T21:26:35.514Z,2.60
2023-04-04T21:29:06.070Z,4.30
2023-04-04T21:31:41.200Z,3.50
2023-04-04T21:34:14.176Z,5.00
2023-04-04T21:36:45.345Z,6.90
2023-04-04T21:39:27.522Z,7.00
2023-04-04T21:42:00.262Z,28.10
2023-04-04T21:44:30.909Z,33.60
2023-04-04T21:47:02.284Z,49.10
2023-04-04T21:49:31.533Z,25.30
2023-04-04T21:52:01.738Z,22.30
2023-04-04T21:54:30.719Z,12.50
2023-04-04T21:57:00.652Z,36.60
2023-04-04T21:59:30.435Z,56.00
2023-04-04T22:01:59.921Z,59.40
2023-04-04T22:04:28.913Z,76.60
2023-04-04T22:06:58.956Z,54.90
2023-04-04T22:09:30.275Z,27.40
2023-04-04T22:11:59.495Z,44.70
2023-04-04T22:14:30.368Z,5.90
2023-04-04T22:16:59.435Z,21.70
2023-04-04T22:19:35.386Z,11.90
2023-04-04T22:22:06.016Z,8.40
2023-04-04T22:24:35.247Z,13.70
2023-04-04T22:27:05.764Z,16.40
2023-04-04T22:29:34.780Z,6.80
2023-04-04T22:32:04.275Z,9.70
2023-04-04T22:34:33.532Z,9.50
2023-04-04T22:37:04.128Z,6.00
2023-04-04T22:39:33.125Z,4.80
2023-04-04T22:42:02.234Z,5.00
2023-04-04T22:44:31.635Z,8.60
2023-04-04T22:47:03.082Z,8.30
2023-04-04T22:49:33.608Z,8.40
2023-04-04T22:52:08.111Z,4.30
2023-04-04T22:54:38.307Z,4.80
2023-04-04T22:57:07.835Z,4.80
2023-04-04T22:59:36.856Z,4.70
2023-04-04T23:02:06.544Z,4.50
2023-04-04T23:04:36.849Z,4.10
2023-04-04T23:07:05.788Z,5.60
2023-04-04T23:09:35.010Z,3.50
2023-04-04T23:12:04.317Z,3.70
2023-04-04T23:14:39.125Z,2.30
2023-04-04T23:17:08.294Z,2.90
2023-04-04T23:19:38.019Z,2.60
2023-04-04T23:22:08.919Z,3.10
2023-04-04T23:24:38.457Z,2.90
2023-04-04T23:27:08.057Z,2.30
2023-04-04T23:29:36.954Z,2.60
2023-04-04T23:32:06.318Z,2.30
2023-04-04T23:34:35.025Z,2.50
2023-04-04T23:37:04.798Z,2.30
2023-04-04T23:39:33.624Z,2.90
2023-04-04T23:42:03.021Z,3.30
2023-04-04T23:44:32.213Z,3.80
2023-04-04T23:47:00.866Z,4.10
2023-04-04T23:49:30.432Z,2.80
2023-04-04T23:51:59.460Z,2.60
2023-04-04T23:54:28.133Z,2.90
2023-04-04T23:56:57.064Z,2.70
2023-04-04T23:59:26.350Z,2.70
